Aviation Digital Data Service (ADDS)

Output produced by METARs form (0514 UTC 18 February 2018)
found at http://aviationweather.gov/adds/metars/
 
KPHX 180243Z 1803/1906 VRB04KT P6SM FEW200 BKN250 
     FM180500 13004KT P6SM FEW250 
     FM182100 24012KT P6SM SCT070 BKN250 
     FM190300 24012G18KT P6SM VCSH BKN060 BKN250